LFMN/NCE METAR and TAF weather

Enter ICAO airport designator
Station Type Date Time Source
LFMN METAR 2021/05/16 00:30 UTC NOAA

LFMN 160030Z 28005KT 260V320 CAVOK 16/11 Q1008 NOSIG


Station Type Date Time Source
LFMN Decoded METAR 2021/05/16 00:30 UTC NOAA

Nice, France (LFMN) 43-39N 007-12E 10M
May 15, 2021 - 08:30 PM EDT / 2021.05.16 0030 UTC
Wind: from the W (280 degrees) at 6 MPH (5 KT) (direction variable):0
Visibility: greater than 7 mile(s):0
Temperature: 60 F (16 C)
Dew Point: 51 F (11 C)
Relative Humidity: 72%
Pressure (altimeter): 29.77 in. Hg (1008 hPa)
ob: LFMN 160030Z 28005KT 260V320 CAVOK 16/11 Q1008 NOSIG
cycle: 0

Station Type Date Time Source
LFMN TAF 2021/05/15 21:24 UTC NOAA

TAF LFMN 152000Z 1521/1703 23012KT CAVOK PROB30
TEMPO 1600/1606 34010KT
TEMPO 1609/1621 21020G30KT
BECMG 1619/1621 NSC PROB40
TEMPO 1701/1703 34010KT

Example: see airport list